Time;durP1;ratioP1;P1;durP2;ratioP2;P2;SDS_P1;SDS_P2;PMS_P1;PMS_P2;Temp;Humidity;BMP_temperature;BMP_pressure;BME280_temperature;BME280_humidity;BME280_pressure;Samples;Min_cycle;Max_cycle;Signal;HPM_P1;HPM_P2
2024/04/08 00:00:18;;;;;;;5.90;2.75;;;;;;;;;;5013048;28;20057;-62
2024/04/08 00:02:45;;;;;;;5.88;3.00;;;;;;;;;;5013132;28;20053;-62
2024/04/08 00:05:11;;;;;;;6.03;3.00;;;;;;;;;;5017508;28;20066;-62
2024/04/08 00:07:38;;;;;;;5.30;2.67;;;;;;;;;;5012899;28;20081;-62
2024/04/08 00:10:04;;;;;;;6.20;3.17;;;;;;;;;;5013043;28;20389;-62
2024/04/08 00:12:30;;;;;;;4.68;2.60;;;;;;;;;;5013369;28;20137;-62
2024/04/08 00:14:56;;;;;;;5.93;2.97;;;;;;;;;;5012758;28;20054;-62
2024/04/08 00:17:24;;;;;;;5.07;2.72;;;;;;;;;;5012636;28;20068;-62
2024/04/08 00:19:50;;;;;;;6.47;2.42;;;;;;;;;;5013280;28;20066;-62
2024/04/08 00:22:17;;;;;;;5.00;2.53;;;;;;;;;;5013222;28;20096;-62
2024/04/08 00:24:43;;;;;;;6.03;2.95;;;;;;;;;;5012815;28;20061;-62
2024/04/08 00:27:09;;;;;;;7.68;2.50;;;;;;;;;;5012645;28;20045;-62
2024/04/08 00:29:35;;;;;;;6.43;2.60;;;;;;;;;;5012496;28;20113;-62
2024/04/08 00:32:02;;;;;;;5.50;2.70;;;;;;;;;;5012536;28;20487;-62
2024/04/08 00:34:29;;;;;;;6.00;3.20;;;;;;;;;;5012509;28;20054;-62
2024/04/08 00:36:56;;;;;;;5.97;2.75;;;;;;;;;;5012249;28;20057;-62
2024/04/08 00:39:22;;;;;;;7.57;3.20;;;;;;;;;;5013116;28;20054;-65
2024/04/08 00:41:49;;;;;;;6.93;2.47;;;;;;;;;;5013010;28;20081;-63
2024/04/08 00:44:14;;;;;;;5.72;2.85;;;;;;;;;;5012411;28;20054;-62
2024/04/08 00:46:41;;;;;;;9.68;3.10;;;;;;;;;;5016368;28;20537;-62
2024/04/08 00:49:07;;;;;;;7.03;3.10;;;;;;;;;;5031997;28;20050;-62
2024/04/08 00:51:35;;;;;;;7.05;2.63;;;;;;;;;;5032793;28;20460;-62
2024/04/08 00:54:01;;;;;;;6.63;2.78;;;;;;;;;;5035496;28;20053;-61
2024/04/08 00:56:28;;;;;;;5.38;2.55;;;;;;;;;;5035422;28;20533;-61
2024/04/08 00:58:55;;;;;;;6.75;2.78;;;;;;;;;;5035951;28;20061;-62
2024/04/08 01:01:21;;;;;;;6.72;3.33;;;;;;;;;;5036522;28;20049;-61
2024/04/08 01:03:48;;;;;;;6.25;2.83;;;;;;;;;;5035908;28;20060;-61
2024/04/08 01:06:15;;;;;;;5.75;2.85;;;;;;;;;;5036286;28;20050;-62
2024/04/08 01:08:43;;;;;;;7.55;3.35;;;;;;;;;;5035749;28;20045;-61
2024/04/08 01:11:09;;;;;;;5.25;2.80;;;;;;;;;;5046334;28;20049;-61
2024/04/08 01:13:35;;;;;;;7.53;3.10;;;;;;;;;;5021436;28;20061;-61
2024/04/08 01:16:02;;;;;;;10.18;3.22;;;;;;;;;;5050303;28;20127;-62
2024/04/08 01:18:28;;;;;;;7.13;3.08;;;;;;;;;;5036606;28;20058;-62
2024/04/08 01:20:55;;;;;;;5.28;2.97;;;;;;;;;;5035753;28;20132;-61
2024/04/08 01:23:22;;;;;;;4.85;3.10;;;;;;;;;;5035569;28;20057;-61
2024/04/08 01:25:51;;;;;;;7.97;3.60;;;;;;;;;;5036050;28;20403;-62
2024/04/08 01:28:16;;;;;;;5.53;3.35;;;;;;;;;;5053742;28;20071;-61
2024/04/08 01:30:43;;;;;;;5.75;3.20;;;;;;;;;;5019160;28;20046;-61
2024/04/08 01:33:09;;;;;;;5.30;3.50;;;;;;;;;;5015900;28;20420;-62
2024/04/08 01:35:36;;;;;;;8.50;3.67;;;;;;;;;;5015641;28;20076;-61
2024/04/08 01:38:01;;;;;;;9.73;3.65;;;;;;;;;;5015758;28;20053;-61
2024/04/08 01:40:28;;;;;;;6.82;3.63;;;;;;;;;;5015827;28;20057;-61
2024/04/08 01:42:55;;;;;;;7.45;3.45;;;;;;;;;;5015635;28;20404;-61
2024/04/08 01:45:22;;;;;;;10.93;3.88;;;;;;;;;;5016029;28;20522;-61
2024/04/08 01:47:48;;;;;;;6.55;3.60;;;;;;;;;;5016509;28;20403;-62
2024/04/08 01:50:15;;;;;;;5.63;3.42;;;;;;;;;;5015170;28;20085;-60
2024/04/08 01:52:41;;;;;;;6.50;3.63;;;;;;;;;;5032253;28;20060;-61
2024/04/08 01:56:33;;;;;;;7.03;3.78;;;;;;;;;;5583214;25;20557;-62
2024/04/08 01:59:01;;;;;;;6.38;3.70;;;;;;;;;;5582805;25;20486;-69
2024/04/08 02:01:29;;;;;;;5.70;3.42;;;;;;;;;;5581642;25;20025;-63
2024/04/08 02:03:56;;;;;;;9.02;3.90;;;;;;;;;;5579772;25;20489;-61
2024/04/08 02:06:24;;;;;;;6.43;3.97;;;;;;;;;;5581683;25;20028;-62
2024/04/08 02:08:50;;;;;;;7.17;3.50;;;;;;;;;;5583003;25;20032;-63
2024/04/08 02:11:19;;;;;;;6.53;3.45;;;;;;;;;;5581545;25;20381;-62
2024/04/08 02:13:48;;;;;;;5.80;3.40;;;;;;;;;;5582466;25;20025;-62
2024/04/08 02:16:16;;;;;;;9.30;4.43;;;;;;;;;;5559010;25;20989;-62
2024/04/08 02:18:43;;;;;;;9.40;4.15;;;;;;;;;;5580852;25;20365;-61
2024/04/08 02:21:13;;;;;;;6.15;3.60;;;;;;;;;;5566858;25;20400;-62
2024/04/08 02:23:40;;;;;;;10.65;3.22;;;;;;;;;;5582249;25;20376;-61
2024/04/08 02:26:09;;;;;;;8.52;4.03;;;;;;;;;;5581191;25;20041;-62
2024/04/08 02:28:37;;;;;;;7.30;3.35;;;;;;;;;;5582597;25;20037;-60
2024/04/08 02:31:06;;;;;;;9.88;3.75;;;;;;;;;;5581848;25;20478;-61
2024/04/08 02:33:35;;;;;;;6.97;3.65;;;;;;;;;;5567425;25;20029;-62
2024/04/08 02:36:02;;;;;;;9.95;3.88;;;;;;;;;;5544044;25;20486;-62
2024/04/08 02:38:30;;;;;;;8.60;3.92;;;;;;;;;;5571009;25;20364;-62
2024/04/08 02:40:56;;;;;;;5.77;3.30;;;;;;;;;;5568935;25;20021;-61
2024/04/08 02:43:26;;;;;;;5.65;2.95;;;;;;;;;;5543611;25;20943;-62
2024/04/08 02:45:52;;;;;;;7.97;3.40;;;;;;;;;;5544610;25;20025;-62
2024/04/08 02:48:23;;;;;;;8.13;3.30;;;;;;;;;;5544713;25;20025;-62
2024/04/08 02:50:51;;;;;;;5.43;3.10;;;;;;;;;;5544453;25;20483;-61
2024/04/08 02:53:19;;;;;;;7.07;3.03;;;;;;;;;;5544145;25;20017;-61
2024/04/08 02:55:45;;;;;;;7.03;3.45;;;;;;;;;;5578876;25;20033;-62
2024/04/08 02:58:14;;;;;;;5.85;3.05;;;;;;;;;;5581742;25;20028;-62
2024/04/08 03:00:40;;;;;;;6.10;3.05;;;;;;;;;;5582430;25;20506;-62
2024/04/08 03:03:09;;;;;;;5.82;3.10;;;;;;;;;;5581801;25;20017;-65
2024/04/08 03:05:38;;;;;;;6.18;2.75;;;;;;;;;;5579725;25;20029;-62
2024/04/08 03:08:07;;;;;;;5.90;3.23;;;;;;;;;;5564986;25;20028;-62
2024/04/08 03:10:33;;;;;;;6.32;3.60;;;;;;;;;;5545287;25;20029;-62
2024/04/08 03:13:02;;;;;;;6.63;3.75;;;;;;;;;;5527578;25;20418;-62
2024/04/08 03:15:29;;;;;;;7.95;3.75;;;;;;;;;;5527932;25;20029;-62
2024/04/08 03:17:58;;;;;;;5.80;3.85;;;;;;;;;;5527893;25;20029;-61
2024/04/08 03:20:24;;;;;;;6.82;3.67;;;;;;;;;;5528238;25;20375;-62
2024/04/08 03:22:55;;;;;;;5.63;3.30;;;;;;;;;;5537012;25;20037;-62
2024/04/08 03:25:22;;;;;;;7.85;3.75;;;;;;;;;;5556746;25;20033;-62
2024/04/08 03:27:54;;;;;;;9.25;4.70;;;;;;;;;;5563425;25;20033;-62
2024/04/08 03:30:20;;;;;;;10.23;4.00;;;;;;;;;;5565165;25;20029;-62
2024/04/08 03:32:48;;;;;;;8.90;4.25;;;;;;;;;;5565013;25;20024;-62
2024/04/08 03:35:15;;;;;;;5.50;3.97;;;;;;;;;;5565480;25;20024;-62
2024/04/08 03:37:43;;;;;;;8.93;4.90;;;;;;;;;;5564598;25;20893;-60
2024/04/08 03:40:15;;;;;;;6.22;4.15;;;;;;;;;;5558440;25;20038;-62
2024/04/08 03:42:44;;;;;;;10.55;4.35;;;;;;;;;;5528259;25;20408;-62
2024/04/08 03:45:10;;;;;;;7.50;4.57;;;;;;;;;;5529033;25;20022;-62
2024/04/08 03:47:39;;;;;;;6.40;4.18;;;;;;;;;;5527636;25;20025;-62
2024/04/08 03:50:05;;;;;;;7.40;4.50;;;;;;;;;;5527795;25;20475;-62
2024/04/08 03:52:34;;;;;;;6.78;3.95;;;;;;;;;;5527098;25;20374;-62
2024/04/08 03:55:00;;;;;;;6.57;3.93;;;;;;;;;;5527168;25;20038;-62
2024/04/08 03:57:31;;;;;;;7.22;3.60;;;;;;;;;;5526662;25;20025;-62
2024/04/08 03:59:57;;;;;;;7.30;3.80;;;;;;;;;;5527307;25;20028;-62
2024/04/08 04:02:26;;;;;;;5.43;3.70;;;;;;;;;;5539634;25;20037;-62
2024/04/08 04:04:52;;;;;;;7.63;4.10;;;;;;;;;;5565322;25;20037;-63
2024/04/08 04:07:21;;;;;;;8.55;3.92;;;;;;;;;;5564411;25;20400;-62
2024/04/08 04:09:47;;;;;;;6.53;3.73;;;;;;;;;;5565198;25;20033;-62
2024/04/08 04:12:16;;;;;;;9.25;4.28;;;;;;;;;;5564345;25;20036;-62
2024/04/08 04:14:44;;;;;;;7.50;4.20;;;;;;;;;;5565147;25;20363;-62
2024/04/08 04:17:13;;;;;;;6.93;4.07;;;;;;;;;;5549507;25;20393;-62
2024/04/08 04:19:39;;;;;;;5.97;3.80;;;;;;;;;;5528454;25;20120;-62
2024/04/08 04:22:08;;;;;;;7.43;4.50;;;;;;;;;;5525957;25;20036;-62
2024/04/08 04:24:34;;;;;;;6.00;4.07;;;;;;;;;;5526562;25;20025;-62
2024/04/08 04:27:03;;;;;;;6.75;4.10;;;;;;;;;;5526073;25;20038;-62
2024/04/08 04:29:29;;;;;;;10.17;4.47;;;;;;;;;;5528600;25;20037;-62
2024/04/08 04:32:00;;;;;;;4.82;4.03;;;;;;;;;;5533603;25;20021;-62
2024/04/08 04:34:26;;;;;;;6.97;4.30;;;;;;;;;;5526349;25;20029;-62
2024/04/08 04:36:55;;;;;;;7.20;5.22;;;;;;;;;;5540936;25;20024;-63
2024/04/08 04:39:21;;;;;;;7.10;5.00;;;;;;;;;;5564088;25;20040;-64
2024/04/08 04:41:55;;;;;;;9.55;5.25;;;;;;;;;;5563223;25;20963;-62
2024/04/08 04:44:21;;;;;;;9.30;4.82;;;;;;;;;;5564043;25;20028;-66
2024/04/08 04:46:50;;;;;;;6.05;3.78;;;;;;;;;;5563055;25;20037;-62
2024/04/08 04:49:19;;;;;;;7.65;4.40;;;;;;;;;;5543112;25;20386;-62
2024/04/08 04:51:47;;;;;;;7.50;4.00;;;;;;;;;;5542837;25;20036;-62
2024/04/08 04:54:13;;;;;;;8.17;5.17;;;;;;;;;;5536848;25;20028;-62
2024/04/08 04:56:42;;;;;;;6.50;4.13;;;;;;;;;;5528877;25;20037;-62
2024/04/08 04:59:09;;;;;;;7.83;4.53;;;;;;;;;;5563974;25;20125;-62
2024/04/08 05:01:38;;;;;;;6.53;4.00;;;;;;;;;;5564146;25;20029;-62
2024/04/08 05:04:04;;;;;;;6.07;3.93;;;;;;;;;;5563723;25;20033;-62
2024/04/08 05:06:35;;;;;;;8.45;4.60;;;;;;;;;;5563610;25;20020;-63
2024/04/08 05:09:02;;;;;;;8.63;4.57;;;;;;;;;;5563481;25;20024;-62
2024/04/08 05:11:31;;;;;;;11.88;6.00;;;;;;;;;;5561808;25;20526;-62
2024/04/08 05:13:57;;;;;;;7.13;4.80;;;;;;;;;;5563771;25;20478;-62
2024/04/08 05:16:26;;;;;;;7.53;4.50;;;;;;;;;;5563004;25;20028;-62
2024/04/08 05:18:52;;;;;;;9.07;5.27;;;;;;;;;;5563800;25;20025;-62
2024/04/08 05:21:21;;;;;;;8.77;4.97;;;;;;;;;;5562719;25;20498;-64
2024/04/08 05:23:50;;;;;;;7.43;4.28;;;;;;;;;;5563726;25;20380;-64
2024/04/08 05:26:19;;;;;;;7.88;6.00;;;;;;;;;;5537007;25;20029;-64
2024/04/08 05:28:45;;;;;;;7.70;5.50;;;;;;;;;;5524784;25;20029;-64
2024/04/08 05:31:14;;;;;;;8.45;5.25;;;;;;;;;;5523637;25;20378;-65
2024/04/08 05:33:40;;;;;;;7.40;5.20;;;;;;;;;;5525919;25;20034;-64
2024/04/08 05:36:09;;;;;;;7.82;4.80;;;;;;;;;;5525113;25;20382;-65
2024/04/08 05:38:35;;;;;;;6.13;4.15;;;;;;;;;;5525697;25;20025;-65
2024/04/08 05:41:07;;;;;;;8.20;4.82;;;;;;;;;;5528835;25;20099;-64
2024/04/08 05:43:33;;;;;;;6.10;4.28;;;;;;;;;;5556136;25;20368;-63
2024/04/08 05:46:02;;;;;;;7.00;4.50;;;;;;;;;;5535283;25;20045;-64
2024/04/08 05:48:28;;;;;;;8.10;4.28;;;;;;;;;;5530864;25;20119;-64
2024/04/08 05:50:57;;;;;;;7.03;4.13;;;;;;;;;;5527789;25;20013;-63
2024/04/08 05:53:23;;;;;;;7.78;4.78;;;;;;;;;;5539951;25;20033;-65
2024/04/08 05:55:52;;;;;;;7.63;4.82;;;;;;;;;;5561619;25;20025;-64
2024/04/08 05:58:21;;;;;;;9.13;5.20;;;;;;;;;;5542996;25;20482;-64
2024/04/08 06:00:49;;;;;;;8.77;5.07;;;;;;;;;;5535517;25;20403;-65
2024/04/08 06:03:15;;;;;;;6.70;4.68;;;;;;;;;;5540206;25;20474;-65
2024/04/08 06:05:45;;;;;;;8.82;4.63;;;;;;;;;;5540014;25;20029;-64
2024/04/08 06:08:11;;;;;;;9.82;5.28;;;;;;;;;;5537575;25;20026;-64
2024/04/08 06:10:44;;;;;;;9.48;5.13;;;;;;;;;;5540200;25;20374;-65
2024/04/08 06:13:10;;;;;;;9.93;4.22;;;;;;;;;;5528777;25;20030;-64
2024/04/08 06:15:42;;;;;;;6.13;4.60;;;;;;;;;;5550574;25;20034;-64
2024/04/08 06:18:08;;;;;;;6.45;4.60;;;;;;;;;;5527987;25;20497;-64
2024/04/08 06:20:37;;;;;;;7.43;4.25;;;;;;;;;;5525998;25;20025;-64
2024/04/08 06:23:03;;;;;;;10.87;4.70;;;;;;;;;;5524491;25;20022;-65
2024/04/08 06:25:32;;;;;;;7.13;4.97;;;;;;;;;;5532281;25;20390;-65
2024/04/08 06:27:58;;;;;;;7.07;4.63;;;;;;;;;;5535637;25;20106;-63
2024/04/08 06:30:26;;;;;;;9.02;4.63;;;;;;;;;;5538122;25;20390;-66
2024/04/08 06:32:57;;;;;;;6.63;4.63;;;;;;;;;;5549751;25;20032;-63
2024/04/08 06:35:26;;;;;;;8.02;4.65;;;;;;;;;;5536824;25;20398;-64
2024/04/08 06:37:52;;;;;;;7.45;4.72;;;;;;;;;;5532903;25;20025;-64
2024/04/08 06:40:21;;;;;;;5.95;3.80;;;;;;;;;;5533987;25;20037;-63
2024/04/08 06:42:47;;;;;;;9.38;4.40;;;;;;;;;;5534843;25;20033;-64
2024/04/08 06:45:15;;;;;;;6.00;4.00;;;;;;;;;;5533725;25;20032;-64
2024/04/08 06:47:42;;;;;;;7.63;4.10;;;;;;;;;;5547000;25;20029;-64
2024/04/08 06:50:13;;;;;;;6.43;3.65;;;;;;;;;;5537149;25;20036;-64
2024/04/08 06:52:39;;;;;;;8.10;4.18;;;;;;;;;;5546350;25;20029;-65
2024/04/08 06:55:09;;;;;;;5.43;3.50;;;;;;;;;;5549359;25;20029;-63
2024/04/08 06:57:35;;;;;;;7.63;3.40;;;;;;;;;;5544005;25;20025;-63
2024/04/08 07:00:06;;;;;;;6.57;3.35;;;;;;;;;;5541437;25;20474;-63
2024/04/08 07:02:32;;;;;;;6.82;3.33;;;;;;;;;;5554341;25;20032;-62
2024/04/08 07:05:01;;;;;;;7.93;3.75;;;;;;;;;;5549540;25;20028;-64
2024/04/08 07:07:29;;;;;;;6.43;3.47;;;;;;;;;;5545945;25;20030;-64
2024/04/08 07:09:58;;;;;;;7.40;3.70;;;;;;;;;;5559034;25;20045;-63
2024/04/08 07:12:24;;;;;;;6.30;3.55;;;;;;;;;;5533446;25;20038;-64
2024/04/08 07:14:53;;;;;;;5.80;3.78;;;;;;;;;;5537058;25;20051;-64
2024/04/08 07:17:19;;;;;;;6.28;3.90;;;;;;;;;;5549715;25;20032;-62
2024/04/08 07:19:49;;;;;;;7.07;3.92;;;;;;;;;;5560277;25;20028;-63
2024/04/08 07:22:15;;;;;;;7.90;4.18;;;;;;;;;;5559908;25;20373;-64
2024/04/08 07:24:47;;;;;;;6.95;3.80;;;;;;;;;;5550935;25;20497;-63
2024/04/08 07:27:13;;;;;;;6.63;4.32;;;;;;;;;;5531517;25;20037;-64
2024/04/08 07:29:42;;;;;;;9.80;4.40;;;;;;;;;;5533280;25;20049;-64
2024/04/08 07:32:08;;;;;;;7.28;4.50;;;;;;;;;;5540975;25;20021;-65
2024/04/08 07:34:37;;;;;;;7.35;4.78;;;;;;;;;;5535243;25;20029;-64
2024/04/08 07:37:03;;;;;;;8.98;5.13;;;;;;;;;;5546927;25;20024;-64
2024/04/08 07:39:32;;;;;;;9.63;5.10;;;;;;;;;;5554311;25;20021;-64
2024/04/08 07:42:01;;;;;;;7.15;4.40;;;;;;;;;;5556979;25;20030;-64
2024/04/08 07:44:29;;;;;;;6.50;4.28;;;;;;;;;;5544050;25;20044;-63
2024/04/08 07:46:55;;;;;;;7.15;4.50;;;;;;;;;;5534014;25;20021;-65
2024/04/08 07:49:24;;;;;;;8.57;4.53;;;;;;;;;;5535996;25;20518;-64
2024/04/08 07:51:50;;;;;;;7.97;5.07;;;;;;;;;;5533731;25;20036;-62
2024/04/08 07:54:20;;;;;;;9.65;4.45;;;;;;;;;;5529986;25;20025;-62
2024/04/08 07:56:46;;;;;;;7.22;4.32;;;;;;;;;;5544694;25;20043;-65
2024/04/08 07:59:17;;;;;;;5.68;4.15;;;;;;;;;;5550477;25;20029;-62
2024/04/08 08:01:43;;;;;;;7.10;4.13;;;;;;;;;;5541515;25;20033;-62
2024/04/08 08:04:12;;;;;;;8.48;4.57;;;;;;;;;;5531811;25;20026;-63
2024/04/08 08:06:38;;;;;;;7.10;4.35;;;;;;;;;;5551746;25;20029;-64
2024/04/08 08:09:07;;;;;;;9.25;4.45;;;;;;;;;;5542587;25;20362;-65
2024/04/08 08:11:36;;;;;;;7.78;4.30;;;;;;;;;;5546159;25;20033;-66
2024/04/08 08:14:05;;;;;;;;;;;;;;;;;;5536114;25;20033;-64
2024/04/08 08:16:36;;;;;;;8.50;4.25;;;;;;;;;;5544476;25;19959;-64
2024/04/08 08:19:05;;;;;;;6.93;4.45;;;;;;;;;;5545893;25;20032;-67
2024/04/08 08:21:34;;;;;;;6.38;4.15;;;;;;;;;;5544449;25;20470;-66
2024/04/08 08:24:03;;;;;;;7.90;3.88;;;;;;;;;;5535381;25;20033;-65
2024/04/08 08:26:32;;;;;;;;;;;;;;;;;;5551074;25;20028;-65
2024/04/08 08:29:00;;;;;;;6.85;4.07;;;;;;;;;;5555558;25;20021;-66
2024/04/08 08:31:29;;;;;;;6.97;4.00;;;;;;;;;;5543648;25;20029;-65
2024/04/08 08:34:00;;;;;;;8.65;4.35;;;;;;;;;;5546231;25;20029;-66
2024/04/08 08:36:27;;;;;;;7.18;4.03;;;;;;;;;;5542243;25;20032;-64
2024/04/08 08:38:55;;;;;;;6.18;3.85;;;;;;;;;;5559973;25;20388;-64
2024/04/08 08:41:22;;;;;;;6.65;3.97;;;;;;;;;;5541085;25;20040;-64
2024/04/08 08:43:52;;;;;;;6.10;3.70;;;;;;;;;;5541070;25;20446;-63
2024/04/08 08:46:22;;;;;;;5.80;3.65;;;;;;;;;;5530262;25;20049;-64
2024/04/08 08:48:53;;;;;;;6.32;3.47;;;;;;;;;;5543015;25;20025;-61
2024/04/08 08:51:22;;;;;;;6.72;3.50;;;;;;;;;;5541923;25;20041;-64
2024/04/08 08:53:50;;;;;;;5.72;3.50;;;;;;;;;;5544906;25;20109;-64
2024/04/08 08:56:16;;;;;;;6.88;3.75;;;;;;;;;;5550416;25;20479;-64
2024/04/08 08:58:47;;;;;;;6.95;3.17;;;;;;;;;;5541939;25;20051;-64
2024/04/08 09:01:15;;;;;;;8.88;3.53;;;;;;;;;;5532429;25;20033;-64
2024/04/08 09:03:44;;;;;;;7.53;3.15;;;;;;;;;;5538444;25;20475;-62
2024/04/08 09:06:10;;;;;;;6.28;2.78;;;;;;;;;;5538002;25;20029;-64
2024/04/08 09:08:42;;;;;;;5.90;3.40;;;;;;;;;;5539829;25;20104;-64
2024/04/08 09:11:09;;;;;;;4.90;3.10;;;;;;;;;;5542514;25;20049;-65
2024/04/08 09:13:38;;;;;;;5.97;3.35;;;;;;;;;;5542047;25;20037;-64
2024/04/08 09:16:05;;;;;;;7.03;3.60;;;;;;;;;;5543001;25;20378;-65
2024/04/08 09:18:34;;;;;;;6.80;3.50;;;;;;;;;;5530303;25;20033;-64
2024/04/08 09:21:00;;;;;;;5.65;3.28;;;;;;;;;;5534373;25;20115;-64
2024/04/08 09:23:32;;;;;;;8.77;3.58;;;;;;;;;;5550882;25;20116;-64
2024/04/08 09:26:01;;;;;;;5.50;3.40;;;;;;;;;;5556273;25;20029;-64
2024/04/08 09:28:29;;;;;;;6.38;3.65;;;;;;;;;;5533312;25;20024;-66
2024/04/08 09:30:56;;;;;;;5.65;3.15;;;;;;;;;;5542010;25;20025;-63
2024/04/08 09:33:25;;;;;;;6.70;3.20;;;;;;;;;;5547299;25;20028;-64
2024/04/08 09:35:51;;;;;;;8.18;3.50;;;;;;;;;;5559062;25;20385;-64
2024/04/08 09:38:20;;;;;;;5.30;3.00;;;;;;;;;;5532201;25;20021;-64
2024/04/08 09:40:47;;;;;;;6.22;2.70;;;;;;;;;;5553657;25;20032;-64
2024/04/08 09:43:18;;;;;;;5.22;2.50;;;;;;;;;;5552509;25;20372;-64
2024/04/08 09:45:45;;;;;;;7.55;2.85;;;;;;;;;;5534526;25;20036;-63
2024/04/08 09:48:15;;;;;;;5.30;2.55;;;;;;;;;;5540037;25;20033;-64
2024/04/08 09:50:42;;;;;;;6.05;2.60;;;;;;;;;;5539761;25;20037;-64
2024/04/08 09:53:11;;;;;;;7.45;2.95;;;;;;;;;;5541635;25;20510;-64
2024/04/08 09:55:39;;;;;;;5.60;2.78;;;;;;;;;;5547037;25;20024;-65
2024/04/08 09:58:10;;;;;;;6.88;2.83;;;;;;;;;;5542451;25;20037;-64
2024/04/08 10:00:40;;;;;;;7.82;2.67;;;;;;;;;;5540720;25;20037;-65
2024/04/08 10:03:11;;;;;;;5.55;2.38;;;;;;;;;;5535300;25;20048;-64
2024/04/08 10:05:38;;;;;;;6.32;2.33;;;;;;;;;;5536549;25;20041;-63
2024/04/08 10:08:08;;;;;;;5.72;2.50;;;;;;;;;;5542279;25;20481;-64
2024/04/08 10:10:34;;;;;;;6.03;2.42;;;;;;;;;;5532743;25;20037;-64
2024/04/08 10:13:03;;;;;;;5.78;2.28;;;;;;;;;;5543563;25;20364;-65
2024/04/08 10:15:31;;;;;;;5.45;2.35;;;;;;;;;;5540805;25;20379;-66
2024/04/08 10:18:02;;;;;;;6.97;2.53;;;;;;;;;;5540136;25;20454;-66
2024/04/08 10:20:28;;;;;;;4.18;2.33;;;;;;;;;;5549375;25;20036;-66
2024/04/08 10:22:57;;;;;;;6.07;2.42;;;;;;;;;;5550588;25;20037;-65
2024/04/08 10:25:47;;;;;;;5.22;2.47;;;;;;;;;;5541160;25;20121;-62
2024/04/08 10:28:14;;;;;;;5.25;2.55;;;;;;;;;;5513631;25;20029;-67
2024/04/08 10:30:44;;;;;;;8.77;2.40;;;;;;;;;;5538842;25;20042;-65
2024/04/08 10:33:13;;;;;;;4.13;2.05;;;;;;;;;;5543370;25;20022;-64
2024/04/08 10:35:42;;;;;;;7.50;2.40;;;;;;;;;;5554577;25;20032;-65
2024/04/08 10:38:08;;;;;;;5.32;2.10;;;;;;;;;;5526329;25;19997;-65
2024/04/08 10:40:38;;;;;;;7.10;2.50;;;;;;;;;;5514963;25;20353;-67
2024/04/08 10:43:04;;;;;;;7.25;2.30;;;;;;;;;;5522481;25;20036;-65
2024/04/08 10:45:33;;;;;;;5.93;2.17;;;;;;;;;;5529294;25;20011;-64
2024/04/08 10:48:00;;;;;;;3.60;1.95;;;;;;;;;;5515584;25;20486;-64
2024/04/08 10:50:32;;;;;;;7.75;2.78;;;;;;;;;;5522908;25;20042;-65
2024/04/08 10:52:58;;;;;;;6.07;2.33;;;;;;;;;;5519384;25;20033;-64
2024/04/08 10:55:27;;;;;;;7.30;2.25;;;;;;;;;;5524950;25;20041;-64
2024/04/08 10:57:53;;;;;;;4.13;2.30;;;;;;;;;;5518930;25;20002;-63
2024/04/08 11:00:22;;;;;;;5.47;2.08;;;;;;;;;;5547333;25;20041;-64
2024/04/08 11:02:48;;;;;;;7.60;2.40;;;;;;;;;;5532134;25;20041;-65
2024/04/08 11:05:17;;;;;;;8.13;2.47;;;;;;;;;;5541527;25;20044;-64
2024/04/08 11:07:46;;;;;;;5.85;1.73;;;;;;;;;;5535228;25;20037;-64
2024/04/08 11:10:16;;;;;;;8.63;3.00;;;;;;;;;;5545071;25;20029;-65
2024/04/08 11:12:43;;;;;;;6.82;2.20;;;;;;;;;;5550495;25;20041;-64
2024/04/08 11:15:12;;;;;;;5.55;2.13;;;;;;;;;;5532978;25;20021;-64
2024/04/08 11:17:39;;;;;;;7.75;2.47;;;;;;;;;;5550124;25;20030;-65
2024/04/08 11:20:09;;;;;;;9.05;2.55;;;;;;;;;;5556364;25;20614;-65
2024/04/08 11:22:35;;;;;;;8.30;2.67;;;;;;;;;;5559164;25;20036;-64
2024/04/08 11:25:07;;;;;;;5.15;1.90;;;;;;;;;;5545747;25;20011;-64
2024/04/08 11:27:33;;;;;;;5.75;2.20;;;;;;;;;;5541384;25;20024;-64
2024/04/08 11:30:02;;;;;;;8.35;2.25;;;;;;;;;;5533385;25;20011;-65
2024/04/08 11:32:28;;;;;;;5.35;2.17;;;;;;;;;;5535157;25;20016;-64
2024/04/08 11:34:57;;;;;;;5.15;2.10;;;;;;;;;;5539481;25;20037;-64
2024/04/08 11:37:23;;;;;;;5.90;2.42;;;;;;;;;;5550967;25;20042;-65
2024/04/08 11:39:52;;;;;;;5.35;2.50;;;;;;;;;;5539029;25;20509;-64
2024/04/08 11:42:20;;;;;;;6.55;2.30;;;;;;;;;;5553574;25;20028;-67
2024/04/08 11:44:58;;;;;;;7.85;2.70;;;;;;;;;;5549746;25;20241;-63
2024/04/08 11:47:25;;;;;;;6.30;2.47;;;;;;;;;;5545490;25;20032;-64
2024/04/08 11:49:54;;;;;;;5.95;2.28;;;;;;;;;;5544541;25;20428;-64
2024/04/08 11:52:20;;;;;;;5.22;2.10;;;;;;;;;;5553948;25;20037;-63
2024/04/08 11:54:48;;;;;;;5.82;2.33;;;;;;;;;;5540255;25;20036;-64
2024/04/08 11:57:15;;;;;;;4.47;2.00;;;;;;;;;;5536178;25;20029;-63
2024/04/08 11:59:47;;;;;;;5.30;2.30;;;;;;;;;;5540140;25;20024;-64
2024/04/08 12:02:13;;;;;;;6.50;2.45;;;;;;;;;;5526567;25;20041;-64
2024/04/08 12:04:46;;;;;;;8.45;2.33;;;;;;;;;;5541544;25;20499;-64
2024/04/08 12:07:12;;;;;;;4.22;2.25;;;;;;;;;;5544366;25;20028;-64
2024/04/08 12:09:44;;;;;;;5.28;2.10;;;;;;;;;;5539899;25;20040;-64
2024/04/08 12:12:13;;;;;;;7.15;2.10;;;;;;;;;;5541650;25;20045;-63
2024/04/08 12:14:42;;;;;;;4.50;2.00;;;;;;;;;;5550361;25;20031;-64
2024/04/08 12:17:11;;;;;;;6.43;2.40;;;;;;;;;;5553872;25;20060;-63
2024/04/08 12:19:40;;;;;;;7.78;2.47;;;;;;;;;;5537037;25;20029;-64
2024/04/08 12:22:06;;;;;;;8.30;2.25;;;;;;;;;;5550547;25;20041;-64
2024/04/08 12:24:35;;;;;;;6.32;2.22;;;;;;;;;;5544373;25;20489;-64
2024/04/08 12:27:01;;;;;;;10.90;2.08;;;;;;;;;;5542327;25;20033;-64
2024/04/08 12:29:30;;;;;;;5.78;2.30;;;;;;;;;;5557902;25;20033;-64
2024/04/08 12:31:56;;;;;;;;;;;;;;;;;;5550685;25;20036;-64
2024/04/08 12:34:27;;;;;;;6.35;2.15;;;;;;;;;;5535436;25;20029;-64
2024/04/08 12:36:53;;;;;;;7.60;2.60;;;;;;;;;;5554785;25;20021;-64
2024/04/08 12:39:22;;;;;;;6.95;2.50;;;;;;;;;;5547881;25;20025;-66
2024/04/08 12:41:48;;;;;;;7.55;2.10;;;;;;;;;;5545672;25;20025;-64
2024/04/08 12:44:17;;;;;;;7.60;2.38;;;;;;;;;;5543608;25;20037;-63
2024/04/08 12:46:43;;;;;;;4.65;2.15;;;;;;;;;;5542420;25;20397;-63
2024/04/08 12:49:12;;;;;;;5.97;2.40;;;;;;;;;;5555649;25;20025;-64
2024/04/08 12:51:41;;;;;;;4.50;2.03;;;;;;;;;;5532588;25;20037;-64
2024/04/08 12:54:10;;;;;;;5.97;2.20;;;;;;;;;;5534358;25;20033;-64
2024/04/08 12:56:36;;;;;;;5.75;1.90;;;;;;;;;;5534377;25;20474;-63
2024/04/08 12:59:05;;;;;;;5.85;2.33;;;;;;;;;;5546839;25;20028;-63
2024/04/08 13:01:31;;;;;;;7.15;2.58;;;;;;;;;;5539642;25;20579;-61
2024/04/08 13:04:00;;;;;;;4.78;2.10;;;;;;;;;;5540509;25;20036;-62
2024/04/08 13:06:26;;;;;;;7.00;2.50;;;;;;;;;;5534972;25;20033;-61
2024/04/08 13:08:57;;;;;;;7.93;2.25;;;;;;;;;;5531568;25;20029;-62
2024/04/08 13:11:23;;;;;;;7.80;2.67;;;;;;;;;;5541108;25;20033;-60
2024/04/08 13:13:52;;;;;;;5.53;2.20;;;;;;;;;;5543485;25;20504;-61
2024/04/08 13:16:18;;;;;;;;;;;;;;;;;;5557678;25;20458;-62
2024/04/08 13:18:46;;;;;;;8.02;2.42;;;;;;;;;;5559572;25;19923;-62
2024/04/08 13:21:13;;;;;;;6.28;2.50;;;;;;;;;;5557287;25;20037;-62
2024/04/08 13:23:41;;;;;;;5.22;2.38;;;;;;;;;;5538909;25;20028;-62
2024/04/08 13:26:10;;;;;;;8.20;2.50;;;;;;;;;;5560086;25;20037;-61
2024/04/08 13:28:38;;;;;;;;;;;;;;;;;;5547892;25;20467;-62
2024/04/08 13:31:05;;;;;;;7.38;2.80;;;;;;;;;;5553973;25;19951;-63
2024/04/08 13:33:34;;;;;;;7.40;2.75;;;;;;;;;;5537774;25;20033;-65
2024/04/08 13:36:00;;;;;;;6.68;2.60;;;;;;;;;;5537206;25;20374;-62
2024/04/08 13:38:29;;;;;;;8.98;2.70;;;;;;;;;;5540449;25;20033;-63
2024/04/08 13:40:55;;;;;;;8.00;3.20;;;;;;;;;;5548214;25;20029;-63
2024/04/08 13:43:27;;;;;;;4.93;2.28;;;;;;;;;;5540362;25;20033;-63
2024/04/08 13:45:53;;;;;;;8.20;2.78;;;;;;;;;;5531551;25;20038;-62
2024/04/08 13:48:21;;;;;;;7.32;2.60;;;;;;;;;;5530572;25;20033;-62
2024/04/08 13:50:47;;;;;;;8.73;3.00;;;;;;;;;;5531383;25;20041;-62
2024/04/08 13:53:16;;;;;;;7.13;2.70;;;;;;;;;;5546200;25;20147;-62
2024/04/08 13:55:53;;;;;;;12.90;2.95;;;;;;;;;;5533050;25;20025;-63
2024/04/08 13:58:22;;;;;;;6.97;2.55;;;;;;;;;;5536969;25;20037;-62
2024/04/08 14:00:51;;;;;;;5.60;2.88;;;;;;;;;;5547807;25;20501;-62
2024/04/08 14:03:19;;;;;;;6.18;2.70;;;;;;;;;;5548437;25;20018;-63
2024/04/08 14:05:48;;;;;;;5.88;2.50;;;;;;;;;;5536897;25;20025;-62
2024/04/08 14:08:16;;;;;;;7.97;2.53;;;;;;;;;;5530973;25;20060;-63
2024/04/08 14:10:43;;;;;;;7.10;2.63;;;;;;;;;;5545026;25;20015;-62
2024/04/08 14:13:11;;;;;;;6.07;2.63;;;;;;;;;;5534381;25;20339;-62
2024/04/08 14:15:40;;;;;;;6.38;2.88;;;;;;;;;;5527753;25;19997;-63
2024/04/08 14:18:09;;;;;;;6.60;3.03;;;;;;;;;;5541362;25;20379;-62
2024/04/08 14:20:39;;;;;;;9.10;3.17;;;;;;;;;;5518518;25;20002;-63
2024/04/08 14:23:05;;;;;;;7.55;2.92;;;;;;;;;;5529156;25;20007;-63
2024/04/08 14:25:34;;;;;;;5.90;2.53;;;;;;;;;;5538662;25;20033;-63
2024/04/08 14:28:01;;;;;;;7.22;2.92;;;;;;;;;;5539611;25;20037;-62
2024/04/08 14:30:30;;;;;;;6.53;2.63;;;;;;;;;;5534707;25;20037;-63
2024/04/08 14:32:56;;;;;;;7.10;2.63;;;;;;;;;;5537917;25;20383;-63
2024/04/08 14:35:28;;;;;;;6.05;2.67;;;;;;;;;;5535385;25;20037;-63
2024/04/08 14:37:54;;;;;;;8.07;2.58;;;;;;;;;;5553158;25;20037;-63
2024/04/08 14:40:23;;;;;;;7.00;2.83;;;;;;;;;;5537026;25;20099;-62
2024/04/08 14:42:51;;;;;;;7.40;2.67;;;;;;;;;;5539949;25;20190;-62
2024/04/08 14:45:17;;;;;;;5.38;2.70;;;;;;;;;;5549125;25;20033;-62
2024/04/08 14:47:46;;;;;;;8.43;2.85;;;;;;;;;;5546598;25;20029;-62